createdAt,value
2022-10-09T15:14:59.086Z,44
2022-10-09T15:15:23.213Z,45
2022-10-09T15:15:47.206Z,44
2022-10-09T15:19:23.179Z,45
2022-10-09T15:20:11.147Z,44
2022-10-09T15:21:47.295Z,45
2022-10-09T15:22:11.234Z,46
2022-10-09T15:22:59.160Z,45
2022-10-09T15:23:47.182Z,45
2022-10-09T15:24:35.097Z,45
2022-10-09T15:25:47.180Z,46
2022-10-09T15:26:11.164Z,45
2022-10-09T15:26:59.127Z,45
2022-10-09T15:27:23.118Z,45
2022-10-09T15:28:38.273Z,45
2022-10-09T15:29:38.169Z,45
2022-10-09T15:30:38.134Z,46
2022-10-09T15:31:38.143Z,45
2022-10-09T15:32:38.132Z,46
2022-10-09T15:33:38.145Z,46
2022-10-09T15:34:40.912Z,45
2022-10-09T15:35:38.140Z,46
2022-10-09T15:36:38.390Z,45
2022-10-09T15:37:38.189Z,45
2022-10-09T15:38:38.143Z,45
2022-10-09T15:39:38.138Z,45
2022-10-09T15:40:38.144Z,44
2022-10-09T15:41:38.140Z,44
2022-10-09T15:42:38.132Z,43
2022-10-09T15:43:39.133Z,43
2022-10-09T15:44:38.179Z,43
2022-10-09T15:45:38.159Z,44
2022-10-09T15:46:38.131Z,43
2022-10-09T15:47:50.734Z,44
2022-10-09T15:48:38.156Z,44
2022-10-09T15:49:38.143Z,43
2022-10-09T15:50:38.153Z,43
2022-10-09T15:51:38.155Z,44
2022-10-09T15:52:38.147Z,45
2022-10-09T15:53:38.160Z,45
2022-10-09T15:54:38.153Z,45
2022-10-09T15:55:38.136Z,45
2022-10-09T15:56:40.041Z,46
2022-10-09T15:57:38.154Z,46
2022-10-09T15:58:38.167Z,46
2022-10-09T15:59:38.134Z,46
2022-10-09T16:00:38.174Z,47
2022-10-09T16:01:38.254Z,48
2022-10-09T16:02:38.150Z,47
2022-10-09T16:03:38.160Z,48
2022-10-09T16:04:38.150Z,47
2022-10-09T16:05:38.155Z,48
2022-10-09T16:06:38.154Z,48
2022-10-09T16:07:38.162Z,48
2022-10-09T16:08:38.158Z,48
2022-10-09T16:09:38.176Z,48
2022-10-09T16:10:38.171Z,49
2022-10-09T16:11:38.146Z,49
2022-10-09T16:12:38.158Z,50
2022-10-09T16:13:38.179Z,49
2022-10-09T16:14:38.159Z,50
2022-10-09T16:15:38.160Z,50
2022-10-09T16:16:38.158Z,51
2022-10-09T16:17:38.170Z,50
2022-10-09T16:18:38.165Z,50
2022-10-09T16:19:38.162Z,50
2022-10-09T16:20:38.153Z,51
2022-10-09T16:21:38.177Z,50
2022-10-09T16:22:38.162Z,50
2022-10-09T16:23:38.189Z,51
2022-10-09T16:24:38.166Z,51
2022-10-09T16:25:38.164Z,51
2022-10-09T16:26:38.160Z,52
2022-10-09T16:27:38.171Z,52
2022-10-09T16:28:38.235Z,52
2022-10-09T16:29:38.161Z,52
2022-10-09T16:30:38.156Z,52
2022-10-09T16:31:38.189Z,53
2022-10-09T16:32:38.194Z,54
2022-10-09T16:33:38.184Z,54
2022-10-09T16:34:38.177Z,55
2022-10-09T16:35:38.167Z,54
2022-10-09T16:36:38.179Z,55
2022-10-09T16:37:38.162Z,55
2022-10-09T16:38:38.173Z,55
2022-10-09T16:39:38.162Z,55
2022-10-09T16:41:00.662Z,56
2022-10-09T16:41:41.767Z,56
2022-10-09T16:42:38.160Z,56
2022-10-09T16:43:38.186Z,57
2022-10-09T16:44:38.174Z,57
2022-10-09T16:45:38.163Z,58
2022-10-09T16:46:38.186Z,58
2022-10-09T16:47:38.176Z,58
2022-10-09T16:48:38.180Z,58
2022-10-09T16:49:38.184Z,58
2022-10-09T16:50:38.157Z,59
2022-10-09T16:51:38.179Z,59
2022-10-09T16:52:38.179Z,59
2022-10-09T16:53:38.176Z,60
2022-10-09T16:54:38.181Z,60
2022-10-09T16:55:38.175Z,61
2022-10-09T16:56:38.178Z,60
2022-10-09T16:57:38.176Z,60
2022-10-09T16:58:38.192Z,61
2022-10-09T16:59:38.177Z,61
2022-10-09T17:00:38.248Z,61
2022-10-09T17:01:38.182Z,61
2022-10-09T17:02:38.178Z,61
2022-10-09T17:03:38.218Z,61
2022-10-09T17:04:38.183Z,61
2022-10-09T17:05:38.222Z,62
2022-10-09T17:06:38.176Z,62
2022-10-09T17:07:38.179Z,62
2022-10-09T17:08:38.176Z,62
2022-10-09T17:09:38.215Z,63
2022-10-09T17:10:38.226Z,62
2022-10-09T17:11:38.185Z,63
2022-10-09T17:12:38.198Z,63
2022-10-09T17:13:38.191Z,63
2022-10-09T17:14:38.207Z,63
2022-10-09T17:15:38.209Z,63
2022-10-09T17:16:38.209Z,63
2022-10-09T17:17:38.188Z,64
2022-10-09T17:18:38.192Z,64
2022-10-09T17:19:38.278Z,64
2022-10-09T17:20:38.199Z,64
2022-10-09T17:21:38.197Z,64
2022-10-09T17:22:38.204Z,63
2022-10-09T17:23:38.205Z,63
2022-10-09T17:24:38.195Z,63
2022-10-09T17:25:38.207Z,64
2022-10-09T17:26:38.181Z,64
2022-10-09T17:27:38.185Z,64
2022-10-09T17:28:38.314Z,64
2022-10-09T17:29:38.185Z,64
2022-10-09T17:30:38.201Z,64
2022-10-09T17:31:38.185Z,64
2022-10-09T17:32:38.198Z,64
2022-10-09T17:33:38.203Z,64
2022-10-09T17:34:38.180Z,64
2022-10-09T17:35:38.183Z,65
2022-10-09T17:36:38.197Z,65
2022-10-09T17:37:38.214Z,65
2022-10-09T17:38:38.216Z,65
2022-10-09T17:39:38.195Z,65
2022-10-09T17:40:38.206Z,66
2022-10-09T17:41:38.193Z,66
2022-10-09T17:42:38.204Z,66
2022-10-09T17:43:38.192Z,66
2022-10-09T17:44:38.180Z,68
2022-10-09T17:45:39.203Z,67
2022-10-09T17:46:38.369Z,67
2022-10-09T17:47:38.254Z,68
2022-10-09T17:48:38.195Z,68
2022-10-09T17:49:38.201Z,69
2022-10-09T17:50:38.182Z,70
2022-10-09T17:51:38.182Z,69
2022-10-09T17:52:38.202Z,69
2022-10-09T17:53:38.196Z,69
2022-10-09T17:54:38.188Z,70
2022-10-09T17:55:38.188Z,71
2022-10-09T17:56:38.184Z,73
2022-10-09T17:57:38.208Z,74
2022-10-09T17:58:38.178Z,75
2022-10-09T17:59:38.185Z,74
2022-10-09T18:00:38.239Z,74
2022-10-09T18:01:38.186Z,74
2022-10-09T18:02:38.209Z,74
2022-10-09T18:03:38.168Z,75
2022-10-09T18:04:38.188Z,76
2022-10-09T18:05:41.130Z,76
2022-10-09T18:06:38.189Z,76
2022-10-09T18:07:38.198Z,75
2022-10-09T18:08:38.194Z,75
2022-10-09T18:09:38.212Z,76
2022-10-09T18:10:38.194Z,76
2022-10-09T18:11:38.199Z,76
2022-10-09T18:12:38.214Z,77
2022-10-09T18:13:38.195Z,77
2022-10-09T18:14:38.200Z,77
2022-10-09T18:15:38.232Z,77
2022-10-09T18:16:38.195Z,77
2022-10-09T18:17:38.485Z,77
2022-10-09T18:18:38.188Z,77
2022-10-09T18:19:38.196Z,77
2022-10-09T18:20:38.186Z,77
2022-10-09T18:21:38.198Z,77
2022-10-09T18:22:38.222Z,77
2022-10-09T18:23:38.194Z,77
2022-10-09T18:24:38.198Z,76
2022-10-09T18:25:38.210Z,76
2022-10-09T18:26:38.194Z,77
2022-10-09T18:27:38.201Z,77
2022-10-09T18:28:38.216Z,77
2022-10-09T18:29:38.197Z,77
2022-10-09T18:30:38.219Z,77
2022-10-09T18:31:38.183Z,77
2022-10-09T18:32:38.197Z,78
2022-10-09T18:33:38.211Z,77
2022-10-09T18:34:38.992Z,78
2022-10-09T18:35:38.215Z,78
2022-10-09T18:36:38.203Z,78
2022-10-09T18:37:38.197Z,78
2022-10-09T18:38:38.271Z,79
2022-10-09T18:39:38.472Z,79
2022-10-09T18:40:40.749Z,79
2022-10-09T18:41:38.210Z,78
2022-10-09T18:42:38.205Z,78
2022-10-09T18:43:38.216Z,78
2022-10-09T18:44:38.198Z,78
2022-10-09T18:45:38.205Z,79
2022-10-09T18:46:38.202Z,79
2022-10-09T18:47:38.206Z,79
2022-10-09T18:48:38.190Z,78
2022-10-09T18:49:38.206Z,79
2022-10-09T18:50:38.215Z,79
2022-10-09T18:51:38.203Z,78
2022-10-09T18:52:38.200Z,79
2022-10-09T18:53:38.208Z,78
2022-10-09T18:54:38.229Z,79
2022-10-09T18:55:38.230Z,79
2022-10-09T18:56:38.198Z,80
2022-10-09T18:57:38.237Z,80
2022-10-09T18:58:38.204Z,80
2022-10-09T18:59:38.217Z,81
2022-10-09T19:00:38.262Z,81
2022-10-09T19:01:38.287Z,81
2022-10-09T19:03:38.220Z,81
2022-10-09T19:04:38.189Z,81
2022-10-09T19:05:38.200Z,81
2022-10-09T19:06:38.228Z,82
2022-10-09T19:07:38.211Z,82
2022-10-09T19:08:38.217Z,82
2022-10-09T19:09:38.207Z,82
2022-10-09T19:10:38.230Z,83
2022-10-09T19:11:38.215Z,82
2022-10-09T19:12:38.222Z,82
2022-10-09T19:13:38.237Z,82
2022-10-09T19:14:38.211Z,82
2022-10-09T19:15:38.208Z,82
2022-10-09T19:16:38.221Z,83
2022-10-09T19:17:38.212Z,83
2022-10-09T19:18:38.223Z,84
2022-10-09T19:19:38.207Z,84
2022-10-09T19:20:38.206Z,85
2022-10-09T19:21:38.217Z,85
2022-10-09T19:22:38.242Z,85
2022-10-09T19:23:38.215Z,85
2022-10-09T19:24:38.228Z,84
2022-10-09T19:25:38.217Z,84
2022-10-09T19:26:38.210Z,84
2022-10-09T19:27:38.217Z,84
2022-10-09T19:28:38.256Z,85
2022-10-09T19:29:38.411Z,85
2022-10-09T19:30:38.229Z,85
2022-10-09T19:31:38.227Z,86
2022-10-09T19:32:38.221Z,86
2022-10-09T19:33:38.211Z,86
2022-10-09T19:34:38.209Z,86
2022-10-09T19:35:38.215Z,86
2022-10-09T19:36:38.208Z,87
2022-10-09T19:37:38.219Z,87
2022-10-09T19:38:38.206Z,87
2022-10-09T19:39:38.202Z,87
2022-10-09T19:40:38.230Z,86
2022-10-09T19:41:38.236Z,87
2022-10-09T19:42:38.237Z,87
2022-10-09T19:43:38.237Z,87
2022-10-09T19:44:38.211Z,87
2022-10-09T19:45:38.277Z,87
2022-10-09T19:46:38.223Z,86
2022-10-09T19:47:38.251Z,86
2022-10-09T19:48:38.232Z,87
2022-10-09T19:49:38.236Z,87
2022-10-09T19:50:38.209Z,87
2022-10-09T19:51:38.241Z,87
2022-10-09T19:52:38.227Z,88
2022-10-09T19:53:38.221Z,88
2022-10-09T19:54:38.242Z,88
2022-10-09T19:55:38.241Z,88
2022-10-09T19:56:38.229Z,88
2022-10-09T19:57:38.231Z,88
2022-10-09T19:58:38.213Z,88
2022-10-09T19:59:38.217Z,88
2022-10-09T20:00:38.228Z,89
2022-10-09T20:01:38.374Z,88
2022-10-09T20:02:38.233Z,89
2022-10-09T20:03:38.229Z,89
2022-10-09T20:04:38.228Z,89
2022-10-09T20:05:38.220Z,89
2022-10-09T20:06:38.222Z,89
2022-10-09T20:07:38.225Z,89
2022-10-09T20:08:38.226Z,89
2022-10-09T20:09:38.236Z,89
2022-10-09T20:10:38.258Z,88
2022-10-09T20:11:38.233Z,88
2022-10-09T20:12:38.255Z,89
2022-10-09T20:13:38.231Z,89
2022-10-09T20:14:38.234Z,89
2022-10-09T20:15:38.227Z,89
2022-10-09T20:16:38.226Z,89
2022-10-09T20:17:38.266Z,89
2022-10-09T20:18:38.235Z,89
2022-10-09T20:19:40.311Z,89
2022-10-09T20:20:38.266Z,89
2022-10-09T20:21:38.251Z,89
2022-10-09T20:22:38.270Z,90
2022-10-09T20:23:38.230Z,90
2022-10-09T20:24:38.234Z,90
2022-10-09T20:25:38.251Z,90
2022-10-09T20:26:42.267Z,90
2022-10-09T20:27:38.238Z,90
2022-10-09T20:28:38.269Z,90
2022-10-09T20:29:38.242Z,90
2022-10-09T20:30:38.218Z,90
2022-10-09T20:31:38.256Z,90
2022-10-09T20:32:38.263Z,90
2022-10-09T20:33:38.267Z,90
2022-10-09T20:34:38.243Z,90
2022-10-09T20:35:38.225Z,90
2022-10-09T20:36:38.253Z,90
2022-10-09T20:37:38.252Z,90
2022-10-09T20:38:38.238Z,90
2022-10-09T20:39:38.260Z,90
2022-10-09T20:40:38.224Z,90
2022-10-09T20:41:38.256Z,90
2022-10-09T20:42:38.249Z,90
2022-10-09T20:43:38.223Z,90
2022-10-09T20:44:38.244Z,90
2022-10-09T20:45:38.241Z,90
2022-10-09T20:46:38.241Z,89
2022-10-09T20:47:38.259Z,89
2022-10-09T20:48:38.249Z,89
2022-10-09T20:49:38.255Z,89
2022-10-09T20:50:38.272Z,89
2022-10-09T20:51:38.250Z,89
2022-10-09T20:52:38.286Z,89
2022-10-09T20:53:38.239Z,89
2022-10-09T20:54:38.282Z,89
2022-10-09T20:55:38.278Z,89
2022-10-09T20:56:38.247Z,89
2022-10-09T20:57:38.280Z,89
2022-10-09T20:58:38.292Z,89
2022-10-09T20:59:38.242Z,89
2022-10-09T21:00:38.294Z,89
2022-10-09T21:01:38.384Z,89
2022-10-09T21:02:38.255Z,89
2022-10-09T21:03:38.301Z,89
2022-10-09T21:04:38.271Z,89
2022-10-09T21:05:38.290Z,89
2022-10-09T21:06:38.244Z,89
2022-10-09T21:07:38.289Z,89
2022-10-09T21:08:38.280Z,89
2022-10-09T21:09:38.281Z,89
2022-10-09T21:10:38.249Z,89
2022-10-09T21:11:38.272Z,89
2022-10-09T21:12:38.278Z,89
2022-10-09T21:13:38.263Z,89
2022-10-09T21:14:38.267Z,89
2022-10-09T21:15:41.507Z,89
2022-10-09T21:16:38.259Z,89
2022-10-09T21:17:38.262Z,89
2022-10-09T21:18:38.279Z,89
2022-10-09T21:19:38.282Z,89
2022-10-09T21:20:38.273Z,89
2022-10-09T21:21:38.298Z,89
2022-10-09T21:22:38.284Z,89
2022-10-09T21:23:38.278Z,89
2022-10-09T21:24:38.292Z,89
2022-10-09T21:25:38.267Z,89
2022-10-09T21:26:38.278Z,89
2022-10-09T21:27:38.308Z,89
2022-10-09T21:28:38.350Z,89
2022-10-09T21:29:38.294Z,89
2022-10-09T21:30:41.400Z,89
2022-10-09T21:31:38.316Z,89
2022-10-09T21:32:38.310Z,89
2022-10-09T21:33:38.311Z,89
2022-10-09T21:34:38.298Z,89
2022-10-09T21:35:38.300Z,89
2022-10-09T21:36:47.060Z,89
2022-10-09T21:37:38.332Z,89
2022-10-09T21:38:38.310Z,89
2022-10-09T21:39:38.303Z,89
2022-10-09T21:40:38.300Z,89
2022-10-09T21:41:38.315Z,89
2022-10-09T21:42:38.307Z,89
2022-10-09T21:43:38.297Z,89
2022-10-09T21:44:38.511Z,89
2022-10-09T21:45:38.265Z,89
2022-10-09T21:46:38.300Z,89
2022-10-09T21:47:38.302Z,89
2022-10-09T21:48:38.308Z,89
2022-10-09T21:49:38.325Z,89
2022-10-09T21:50:38.320Z,89
2022-10-09T21:51:38.306Z,89
2022-10-09T21:52:38.311Z,89
2022-10-09T21:53:38.311Z,89
2022-10-09T21:54:38.312Z,89
2022-10-09T21:55:38.308Z,89
2022-10-09T21:56:38.316Z,89
2022-10-09T21:57:38.304Z,89
2022-10-09T21:58:38.302Z,89
2022-10-09T21:59:38.313Z,89
2022-10-09T22:00:38.270Z,89
2022-10-09T22:01:38.340Z,89
2022-10-09T22:02:38.312Z,89
2022-10-09T22:03:38.310Z,89
2022-10-09T22:04:38.298Z,89
2022-10-09T22:05:38.306Z,89
2022-10-09T22:06:38.316Z,89
2022-10-09T22:07:38.316Z,89
2022-10-09T22:08:38.301Z,89
2022-10-09T22:09:38.335Z,89
2022-10-09T22:10:38.295Z,89
2022-10-09T22:11:38.317Z,89
2022-10-09T22:12:38.318Z,89
2022-10-09T22:13:38.312Z,89
2022-10-09T22:14:38.279Z,89
2022-10-09T22:15:38.310Z,89
2022-10-09T22:16:38.295Z,89
2022-10-09T22:17:38.300Z,89
2022-10-09T22:18:38.301Z,89
2022-10-09T22:19:38.292Z,89
2022-10-09T22:20:38.306Z,89
2022-10-09T22:21:38.309Z,89
2022-10-09T22:22:38.312Z,89
2022-10-09T22:23:38.296Z,89
2022-10-09T22:24:38.292Z,89
2022-10-09T22:25:38.414Z,89
2022-10-09T22:26:38.295Z,89
2022-10-09T22:27:38.308Z,89
2022-10-09T22:28:38.334Z,89
2022-10-09T22:29:38.291Z,89
2022-10-09T22:30:38.288Z,89
2022-10-09T22:31:38.302Z,89
2022-10-09T22:32:38.294Z,89
2022-10-09T22:33:38.307Z,89
2022-10-09T22:34:38.294Z,89
2022-10-09T22:35:38.291Z,89
2022-10-09T22:36:38.288Z,89
2022-10-09T22:37:38.295Z,89
2022-10-09T22:38:38.298Z,89
2022-10-09T22:39:38.307Z,89
2022-10-09T22:40:38.301Z,89
2022-10-09T22:41:38.341Z,89
2022-10-09T22:42:38.308Z,89
2022-10-09T22:43:38.305Z,89
2022-10-09T22:44:38.295Z,89
2022-10-09T22:45:38.305Z,89
2022-10-09T22:46:38.307Z,89
2022-10-09T22:47:38.299Z,89
2022-10-09T22:48:38.288Z,89
2022-10-09T22:49:38.358Z,89
2022-10-09T22:50:38.312Z,89
2022-10-09T22:51:38.309Z,89
2022-10-09T22:52:38.325Z,89
2022-10-09T22:53:38.316Z,89
2022-10-09T22:54:38.311Z,89
2022-10-09T22:55:38.301Z,89
2022-10-09T22:56:38.331Z,89
2022-10-09T22:57:38.330Z,89
2022-10-09T22:58:38.310Z,89
2022-10-09T22:59:38.317Z,89
2022-10-09T23:00:38.334Z,89
2022-10-09T23:01:38.443Z,89
2022-10-09T23:02:38.330Z,89
2022-10-09T23:03:38.326Z,89
2022-10-09T23:04:38.310Z,89
2022-10-09T23:05:38.317Z,89
2022-10-09T23:06:38.328Z,89
2022-10-09T23:07:38.335Z,89
2022-10-09T23:08:38.331Z,89
2022-10-09T23:09:38.337Z,89
2022-10-09T23:10:38.342Z,89
2022-10-09T23:11:38.337Z,89
2022-10-09T23:12:38.357Z,89
2022-10-09T23:13:38.358Z,89
2022-10-09T23:14:38.348Z,89
2022-10-09T23:15:38.354Z,89
2022-10-09T23:16:38.358Z,89
2022-10-09T23:17:38.362Z,89
2022-10-09T23:18:38.356Z,89
2022-10-09T23:19:38.368Z,89
2022-10-09T23:20:38.360Z,89
2022-10-09T23:21:38.371Z,89
2022-10-09T23:22:38.383Z,89
2022-10-09T23:23:38.371Z,89
2022-10-09T23:24:38.374Z,89
2022-10-09T23:25:38.378Z,89
2022-10-09T23:26:38.353Z,89
2022-10-09T23:27:38.403Z,89
2022-10-09T23:28:38.573Z,89
2022-10-09T23:29:38.418Z,89
2022-10-09T23:30:38.427Z,89
2022-10-09T23:31:38.420Z,89
2022-10-09T23:32:38.413Z,89
2022-10-09T23:33:38.427Z,89
2022-10-09T23:34:38.423Z,89
2022-10-09T23:35:38.421Z,89
2022-10-09T23:36:38.427Z,89
2022-10-09T23:37:38.452Z,89
2022-10-09T23:38:38.424Z,89
2022-10-09T23:39:38.446Z,89
2022-10-09T23:40:38.453Z,89
2022-10-09T23:41:38.455Z,89
2022-10-09T23:42:38.466Z,89
2022-10-09T23:43:38.486Z,89
2022-10-09T23:44:38.446Z,89
2022-10-09T23:45:38.481Z,89
2022-10-09T23:46:38.450Z,89
2022-10-09T23:47:38.486Z,89
2022-10-09T23:48:38.475Z,89
2022-10-09T23:49:38.466Z,89
2022-10-09T23:50:38.463Z,89
2022-10-09T23:51:38.464Z,89
2022-10-09T23:52:38.520Z,89
2022-10-09T23:53:38.502Z,89
2022-10-09T23:54:38.466Z,89
2022-10-09T23:55:38.513Z,89
2022-10-09T23:56:38.474Z,89
2022-10-09T23:57:38.535Z,89
2022-10-09T23:58:38.480Z,89
2022-10-09T23:59:38.486Z,89
